sensor_id;sensor_type;location;lat;lon;timestamp;P1;durP1;ratioP1;P2;durP2;ratioP2
53925;SDS011;39836;52.754;6.866;2023-06-05T00:19:19;12.13;;;7.70;;
53925;SDS011;39836;52.754;6.866;2023-06-05T00:21:56;15.00;;;8.90;;
53925;SDS011;39836;52.754;6.866;2023-06-05T00:24:45;13.30;;;8.45;;
53925;SDS011;39836;52.754;6.866;2023-06-05T00:27:12;13.57;;;7.88;;
53925;SDS011;39836;52.754;6.866;2023-06-05T00:29:41;14.32;;;8.32;;
53925;SDS011;39836;52.754;6.866;2023-06-05T00:32:13;17.30;;;9.20;;
53925;SDS011;39836;52.754;6.866;2023-06-05T00:34:38;13.15;;;8.48;;
53925;SDS011;39836;52.754;6.866;2023-06-05T00:37:04;12.82;;;8.23;;
53925;SDS011;39836;52.754;6.866;2023-06-05T00:39:32;12.00;;;8.60;;
53925;SDS011;39836;52.754;6.866;2023-06-05T00:41:59;15.52;;;9.10;;
53925;SDS011;39836;52.754;6.866;2023-06-05T00:44:24;12.55;;;8.10;;
53925;SDS011;39836;52.754;6.866;2023-06-05T00:46:50;14.95;;;9.13;;
53925;SDS011;39836;52.754;6.866;2023-06-05T00:49:17;14.80;;;9.63;;
53925;SDS011;39836;52.754;6.866;2023-06-05T00:51:44;11.40;;;8.50;;
53925;SDS011;39836;52.754;6.866;2023-06-05T00:54:11;12.90;;;8.23;;
53925;SDS011;39836;52.754;6.866;2023-06-05T00:56:39;14.05;;;8.90;;
53925;SDS011;39836;52.754;6.866;2023-06-05T00:59:08;14.13;;;8.55;;
53925;SDS011;39836;52.754;6.866;2023-06-05T01:01:34;14.20;;;8.85;;
53925;SDS011;39836;52.754;6.866;2023-06-05T01:04:01;14.85;;;8.50;;
53925;SDS011;39836;52.754;6.866;2023-06-05T01:06:27;14.05;;;8.43;;
53925;SDS011;39836;52.754;6.866;2023-06-05T01:08:56;13.13;;;8.95;;
53925;SDS011;39836;52.754;6.866;2023-06-05T01:11:28;13.32;;;8.40;;
53925;SDS011;39836;52.754;6.866;2023-06-05T01:14:08;14.55;;;9.55;;
53925;SDS011;39836;52.754;6.866;2023-06-05T01:16:51;17.20;;;8.82;;
53925;SDS011;39836;52.754;6.866;2023-06-05T01:19:21;21.70;;;8.93;;
53925;SDS011;39836;52.754;6.866;2023-06-05T01:21:57;12.15;;;8.07;;
53925;SDS011;39836;52.754;6.866;2023-06-05T01:24:23;16.58;;;10.07;;
53925;SDS011;39836;52.754;6.866;2023-06-05T01:32:28;14.05;;;9.45;;
53925;SDS011;39836;52.754;6.866;2023-06-05T01:35:06;17.35;;;9.23;;
53925;SDS011;39836;52.754;6.866;2023-06-05T01:37:34;15.63;;;9.65;;
53925;SDS011;39836;52.754;6.866;2023-06-05T01:40:15;14.20;;;9.70;;
53925;SDS011;39836;52.754;6.866;2023-06-05T01:42:44;17.65;;;9.80;;
53925;SDS011;39836;52.754;6.866;2023-06-05T01:45:11;16.20;;;9.70;;
53925;SDS011;39836;52.754;6.866;2023-06-05T01:47:40;16.73;;;10.77;;
53925;SDS011;39836;52.754;6.866;2023-06-05T01:50:07;14.45;;;9.93;;
53925;SDS011;39836;52.754;6.866;2023-06-05T01:52:34;18.55;;;10.32;;
53925;SDS011;39836;52.754;6.866;2023-06-05T01:55:01;21.05;;;10.52;;
53925;SDS011;39836;52.754;6.866;2023-06-05T01:57:30;16.45;;;10.18;;
53925;SDS011;39836;52.754;6.866;2023-06-05T01:59:58;16.73;;;11.18;;
53925;SDS011;39836;52.754;6.866;2023-06-05T02:02:41;15.30;;;10.68;;
53925;SDS011;39836;52.754;6.866;2023-06-05T02:05:11;15.18;;;10.15;;
53925;SDS011;39836;52.754;6.866;2023-06-05T02:07:38;14.52;;;10.77;;
53925;SDS011;39836;52.754;6.866;2023-06-05T02:10:08;16.17;;;10.43;;
53925;SDS011;39836;52.754;6.866;2023-06-05T02:12:34;13.80;;;9.88;;
53925;SDS011;39836;52.754;6.866;2023-06-05T02:15:02;18.10;;;10.18;;
53925;SDS011;39836;52.754;6.866;2023-06-05T02:17:29;16.40;;;11.25;;
53925;SDS011;39836;52.754;6.866;2023-06-05T02:19:55;18.05;;;10.70;;
53925;SDS011;39836;52.754;6.866;2023-06-05T02:22:20;18.52;;;11.00;;
53925;SDS011;39836;52.754;6.866;2023-06-05T02:24:48;24.58;;;11.13;;
53925;SDS011;39836;52.754;6.866;2023-06-05T02:27:17;20.98;;;11.52;;
53925;SDS011;39836;52.754;6.866;2023-06-05T02:29:43;17.55;;;11.35;;
53925;SDS011;39836;52.754;6.866;2023-06-05T02:32:08;19.85;;;11.30;;
53925;SDS011;39836;52.754;6.866;2023-06-05T02:34:35;19.92;;;11.30;;
53925;SDS011;39836;52.754;6.866;2023-06-05T02:37:01;17.33;;;11.15;;
53925;SDS011;39836;52.754;6.866;2023-06-05T02:39:27;17.70;;;11.82;;
53925;SDS011;39836;52.754;6.866;2023-06-05T02:41:55;17.35;;;11.68;;
53925;SDS011;39836;52.754;6.866;2023-06-05T02:44:21;16.25;;;11.70;;
53925;SDS011;39836;52.754;6.866;2023-06-05T02:46:46;19.15;;;12.32;;
53925;SDS011;39836;52.754;6.866;2023-06-05T02:49:12;20.30;;;12.65;;
53925;SDS011;39836;52.754;6.866;2023-06-05T02:51:38;15.93;;;11.43;;
53925;SDS011;39836;52.754;6.866;2023-06-05T02:54:03;20.10;;;12.00;;
53925;SDS011;39836;52.754;6.866;2023-06-05T02:56:29;18.27;;;11.68;;
53925;SDS011;39836;52.754;6.866;2023-06-05T02:58:54;18.60;;;11.35;;
53925;SDS011;39836;52.754;6.866;2023-06-05T03:01:22;18.17;;;11.63;;
53925;SDS011;39836;52.754;6.866;2023-06-05T03:03:50;19.52;;;11.43;;
53925;SDS011;39836;52.754;6.866;2023-06-05T03:06:17;17.20;;;11.30;;
53925;SDS011;39836;52.754;6.866;2023-06-05T03:08:43;18.38;;;11.07;;
53925;SDS011;39836;52.754;6.866;2023-06-05T03:11:09;19.52;;;11.73;;
53925;SDS011;39836;52.754;6.866;2023-06-05T03:13:35;17.67;;;10.52;;
53925;SDS011;39836;52.754;6.866;2023-06-05T03:16:01;22.02;;;10.02;;
53925;SDS011;39836;52.754;6.866;2023-06-05T03:18:27;18.48;;;10.95;;
53925;SDS011;39836;52.754;6.866;2023-06-05T03:20:54;18.00;;;11.35;;
53925;SDS011;39836;52.754;6.866;2023-06-05T03:23:24;18.60;;;10.82;;
53925;SDS011;39836;52.754;6.866;2023-06-05T03:25:52;21.38;;;10.02;;
53925;SDS011;39836;52.754;6.866;2023-06-05T03:28:18;17.00;;;10.05;;
53925;SDS011;39836;52.754;6.866;2023-06-05T03:30:45;14.63;;;9.55;;
53925;SDS011;39836;52.754;6.866;2023-06-05T03:33:11;13.18;;;9.52;;
53925;SDS011;39836;52.754;6.866;2023-06-05T03:35:39;16.98;;;10.55;;
53925;SDS011;39836;52.754;6.866;2023-06-05T03:38:05;15.25;;;9.43;;
53925;SDS011;39836;52.754;6.866;2023-06-05T03:40:31;15.90;;;9.02;;
53925;SDS011;39836;52.754;6.866;2023-06-05T03:42:57;14.70;;;9.32;;
53925;SDS011;39836;52.754;6.866;2023-06-05T03:45:23;14.73;;;9.55;;
53925;SDS011;39836;52.754;6.866;2023-06-05T03:47:51;14.57;;;9.35;;
53925;SDS011;39836;52.754;6.866;2023-06-05T03:50:17;13.57;;;9.60;;
53925;SDS011;39836;52.754;6.866;2023-06-05T03:52:43;17.63;;;10.32;;
53925;SDS011;39836;52.754;6.866;2023-06-05T03:55:09;14.93;;;9.73;;
53925;SDS011;39836;52.754;6.866;2023-06-05T03:57:38;18.05;;;9.43;;
53925;SDS011;39836;52.754;6.866;2023-06-05T04:00:07;18.35;;;10.43;;
53925;SDS011;39836;52.754;6.866;2023-06-05T04:02:36;15.80;;;9.27;;
53925;SDS011;39836;52.754;6.866;2023-06-05T04:05:02;16.83;;;10.15;;
53925;SDS011;39836;52.754;6.866;2023-06-05T04:07:29;13.73;;;9.30;;
53925;SDS011;39836;52.754;6.866;2023-06-05T04:09:55;14.27;;;9.35;;
53925;SDS011;39836;52.754;6.866;2023-06-05T04:12:21;15.40;;;9.57;;
53925;SDS011;39836;52.754;6.866;2023-06-05T04:14:47;19.20;;;9.68;;
53925;SDS011;39836;52.754;6.866;2023-06-05T04:17:13;18.90;;;9.90;;
53925;SDS011;39836;52.754;6.866;2023-06-05T04:19:39;13.23;;;9.18;;
53925;SDS011;39836;52.754;6.866;2023-06-05T04:22:05;15.27;;;9.80;;
53925;SDS011;39836;52.754;6.866;2023-06-05T04:24:31;19.85;;;10.05;;
53925;SDS011;39836;52.754;6.866;2023-06-05T04:26:57;18.75;;;10.27;;
53925;SDS011;39836;52.754;6.866;2023-06-05T04:29:25;18.55;;;9.20;;
53925;SDS011;39836;52.754;6.866;2023-06-05T04:31:52;14.23;;;9.27;;
53925;SDS011;39836;52.754;6.866;2023-06-05T04:34:17;12.88;;;8.77;;
53925;SDS011;39836;52.754;6.866;2023-06-05T04:36:44;17.48;;;8.20;;
53925;SDS011;39836;52.754;6.866;2023-06-05T04:39:10;14.50;;;9.50;;
53925;SDS011;39836;52.754;6.866;2023-06-05T04:41:43;15.38;;;9.00;;
53925;SDS011;39836;52.754;6.866;2023-06-05T04:44:13;16.55;;;9.52;;
53925;SDS011;39836;52.754;6.866;2023-06-05T04:46:41;14.75;;;9.80;;
53925;SDS011;39836;52.754;6.866;2023-06-05T04:49:11;16.70;;;9.35;;
53925;SDS011;39836;52.754;6.866;2023-06-05T04:51:38;15.93;;;9.57;;
53925;SDS011;39836;52.754;6.866;2023-06-05T04:54:04;15.85;;;9.70;;
53925;SDS011;39836;52.754;6.866;2023-06-05T04:56:31;13.68;;;9.18;;
53925;SDS011;39836;52.754;6.866;2023-06-05T04:58:58;17.05;;;8.90;;
53925;SDS011;39836;52.754;6.866;2023-06-05T05:01:24;17.17;;;7.97;;
53925;SDS011;39836;52.754;6.866;2023-06-05T05:03:52;13.48;;;9.15;;
53925;SDS011;39836;52.754;6.866;2023-06-05T05:06:19;17.20;;;9.40;;
53925;SDS011;39836;52.754;6.866;2023-06-05T05:08:46;12.93;;;9.00;;
53925;SDS011;39836;52.754;6.866;2023-06-05T05:11:15;13.75;;;9.55;;
53925;SDS011;39836;52.754;6.866;2023-06-05T05:13:46;17.92;;;9.43;;
53925;SDS011;39836;52.754;6.866;2023-06-05T05:16:11;13.65;;;8.98;;
53925;SDS011;39836;52.754;6.866;2023-06-05T05:18:40;13.23;;;8.30;;
53925;SDS011;39836;52.754;6.866;2023-06-05T05:21:08;12.45;;;8.82;;
53925;SDS011;39836;52.754;6.866;2023-06-05T05:23:34;16.75;;;9.38;;
53925;SDS011;39836;52.754;6.866;2023-06-05T05:26:00;12.25;;;8.63;;
53925;SDS011;39836;52.754;6.866;2023-06-05T05:28:26;14.27;;;8.63;;
53925;SDS011;39836;52.754;6.866;2023-06-05T05:30:55;17.05;;;8.85;;
53925;SDS011;39836;52.754;6.866;2023-06-05T05:33:22;15.45;;;9.27;;
53925;SDS011;39836;52.754;6.866;2023-06-05T05:35:48;15.27;;;8.80;;
53925;SDS011;39836;52.754;6.866;2023-06-05T05:38:14;14.65;;;9.27;;
53925;SDS011;39836;52.754;6.866;2023-06-05T05:40:39;11.27;;;8.32;;
53925;SDS011;39836;52.754;6.866;2023-06-05T05:43:05;13.15;;;8.75;;
53925;SDS011;39836;52.754;6.866;2023-06-05T05:45:31;15.50;;;9.30;;
53925;SDS011;39836;52.754;6.866;2023-06-05T05:47:56;11.35;;;7.68;;
53925;SDS011;39836;52.754;6.866;2023-06-05T05:50:22;13.52;;;8.35;;
53925;SDS011;39836;52.754;6.866;2023-06-05T05:52:48;11.95;;;7.70;;
53925;SDS011;39836;52.754;6.866;2023-06-05T05:55:14;12.25;;;8.50;;
53925;SDS011;39836;52.754;6.866;2023-06-05T05:57:39;13.02;;;8.00;;
53925;SDS011;39836;52.754;6.866;2023-06-05T06:00:05;13.40;;;8.45;;
53925;SDS011;39836;52.754;6.866;2023-06-05T06:02:40;12.68;;;8.07;;
53925;SDS011;39836;52.754;6.866;2023-06-05T06:05:07;13.90;;;8.18;;
53925;SDS011;39836;52.754;6.866;2023-06-05T06:07:33;12.88;;;8.75;;
53925;SDS011;39836;52.754;6.866;2023-06-05T06:10:00;13.05;;;8.10;;
53925;SDS011;39836;52.754;6.866;2023-06-05T06:12:27;12.48;;;8.05;;
53925;SDS011;39836;52.754;6.866;2023-06-05T06:14:56;12.38;;;7.93;;
53925;SDS011;39836;52.754;6.866;2023-06-05T06:17:21;14.13;;;7.82;;
53925;SDS011;39836;52.754;6.866;2023-06-05T06:19:47;10.63;;;7.40;;
53925;SDS011;39836;52.754;6.866;2023-06-05T06:22:13;15.90;;;8.60;;
53925;SDS011;39836;52.754;6.866;2023-06-05T06:24:40;10.75;;;8.38;;
53925;SDS011;39836;52.754;6.866;2023-06-05T06:27:07;17.13;;;8.57;;
53925;SDS011;39836;52.754;6.866;2023-06-05T06:29:46;13.40;;;8.68;;
53925;SDS011;39836;52.754;6.866;2023-06-05T06:32:17;12.20;;;7.75;;
53925;SDS011;39836;52.754;6.866;2023-06-05T06:34:43;16.08;;;8.25;;
53925;SDS011;39836;52.754;6.866;2023-06-05T06:37:16;14.68;;;9.15;;
53925;SDS011;39836;52.754;6.866;2023-06-05T06:39:42;12.20;;;8.40;;
53925;SDS011;39836;52.754;6.866;2023-06-05T06:42:11;14.48;;;9.18;;
53925;SDS011;39836;52.754;6.866;2023-06-05T06:44:37;15.07;;;9.00;;
53925;SDS011;39836;52.754;6.866;2023-06-05T06:47:04;13.68;;;8.65;;
53925;SDS011;39836;52.754;6.866;2023-06-05T06:49:30;16.23;;;9.32;;
53925;SDS011;39836;52.754;6.866;2023-06-05T06:51:56;11.52;;;7.10;;
53925;SDS011;39836;52.754;6.866;2023-06-05T06:54:22;15.02;;;7.90;;
53925;SDS011;39836;52.754;6.866;2023-06-05T06:56:50;13.13;;;8.15;;
53925;SDS011;39836;52.754;6.866;2023-06-05T06:59:16;12.07;;;7.38;;
53925;SDS011;39836;52.754;6.866;2023-06-05T07:01:42;13.45;;;8.07;;
53925;SDS011;39836;52.754;6.866;2023-06-05T07:04:11;12.00;;;7.93;;
53925;SDS011;39836;52.754;6.866;2023-06-05T07:06:37;12.68;;;7.97;;
53925;SDS011;39836;52.754;6.866;2023-06-05T07:09:03;11.60;;;7.88;;
53925;SDS011;39836;52.754;6.866;2023-06-05T07:11:29;11.55;;;7.88;;
53925;SDS011;39836;52.754;6.866;2023-06-05T07:13:55;9.50;;;6.75;;
53925;SDS011;39836;52.754;6.866;2023-06-05T07:16:21;15.32;;;7.22;;
53925;SDS011;39836;52.754;6.866;2023-06-05T07:18:46;12.15;;;7.13;;
53925;SDS011;39836;52.754;6.866;2023-06-05T07:21:12;10.73;;;6.90;;
53925;SDS011;39836;52.754;6.866;2023-06-05T07:23:38;9.85;;;6.75;;
53925;SDS011;39836;52.754;6.866;2023-06-05T07:26:04;8.18;;;6.13;;
53925;SDS011;39836;52.754;6.866;2023-06-05T07:28:30;9.68;;;6.25;;
53925;SDS011;39836;52.754;6.866;2023-06-05T07:30:55;11.60;;;6.10;;
53925;SDS011;39836;52.754;6.866;2023-06-05T07:33:21;10.60;;;6.10;;
53925;SDS011;39836;52.754;6.866;2023-06-05T07:35:47;12.05;;;6.20;;
53925;SDS011;39836;52.754;6.866;2023-06-05T07:38:13;8.40;;;5.65;;
53925;SDS011;39836;52.754;6.866;2023-06-05T07:40:40;9.38;;;6.13;;
53925;SDS011;39836;52.754;6.866;2023-06-05T07:43:05;8.25;;;5.80;;
53925;SDS011;39836;52.754;6.866;2023-06-05T07:45:31;10.32;;;5.45;;
53925;SDS011;39836;52.754;6.866;2023-06-05T07:47:57;9.85;;;6.18;;
53925;SDS011;39836;52.754;6.866;2023-06-05T07:50:22;12.63;;;5.88;;
53925;SDS011;39836;52.754;6.866;2023-06-05T07:52:48;11.45;;;6.15;;
53925;SDS011;39836;52.754;6.866;2023-06-05T07:55:14;10.60;;;6.15;;
53925;SDS011;39836;52.754;6.866;2023-06-05T07:57:40;8.85;;;5.63;;
53925;SDS011;39836;52.754;6.866;2023-06-05T08:00:06;8.50;;;5.80;;
53925;SDS011;39836;52.754;6.866;2023-06-05T08:02:36;9.23;;;5.75;;
53925;SDS011;39836;52.754;6.866;2023-06-05T08:05:02;9.48;;;6.35;;
53925;SDS011;39836;52.754;6.866;2023-06-05T08:07:28;9.77;;;5.78;;
53925;SDS011;39836;52.754;6.866;2023-06-05T08:09:54;8.45;;;6.10;;
53925;SDS011;39836;52.754;6.866;2023-06-05T08:12:19;12.70;;;5.95;;
53925;SDS011;39836;52.754;6.866;2023-06-05T08:14:45;8.73;;;5.15;;
53925;SDS011;39836;52.754;6.866;2023-06-05T08:17:11;8.45;;;5.80;;
53925;SDS011;39836;52.754;6.866;2023-06-05T08:19:44;10.43;;;5.35;;
53925;SDS011;39836;52.754;6.866;2023-06-05T08:22:13;8.20;;;5.45;;
53925;SDS011;39836;52.754;6.866;2023-06-05T08:27:39;10.68;;;5.78;;
53925;SDS011;39836;52.754;6.866;2023-06-05T10:17:16;11.70;;;5.18;;
53925;SDS011;39836;52.754;6.866;2023-06-05T10:19:44;10.20;;;4.57;;
53925;SDS011;39836;52.754;6.866;2023-06-05T10:22:13;9.15;;;4.90;;
53925;SDS011;39836;52.754;6.866;2023-06-05T10:24:45;8.85;;;4.25;;
53925;SDS011;39836;52.754;6.866;2023-06-05T10:35:47;10.32;;;4.70;;
53925;SDS011;39836;52.754;6.866;2023-06-05T10:38:18;7.50;;;4.28;;
53925;SDS011;39836;52.754;6.866;2023-06-05T10:46:46;7.80;;;4.55;;
53925;SDS011;39836;52.754;6.866;2023-06-05T10:51:37;9.68;;;4.30;;
53925;SDS011;39836;52.754;6.866;2023-06-05T10:54:07;9.65;;;4.97;;
53925;SDS011;39836;52.754;6.866;2023-06-05T10:59:25;8.25;;;4.10;;
53925;SDS011;39836;52.754;6.866;2023-06-05T11:15:05;8.30;;;4.23;;
53925;SDS011;39836;52.754;6.866;2023-06-05T11:17:33;8.27;;;4.27;;
53925;SDS011;39836;52.754;6.866;2023-06-05T11:20:01;7.82;;;3.90;;
53925;SDS011;39836;52.754;6.866;2023-06-05T11:30:23;7.28;;;3.15;;
53925;SDS011;39836;52.754;6.866;2023-06-05T11:32:54;6.85;;;4.07;;
53925;SDS011;39836;52.754;6.866;2023-06-05T11:35:26;6.03;;;3.42;;
53925;SDS011;39836;52.754;6.866;2023-06-05T11:40:35;8.35;;;3.85;;
53925;SDS011;39836;52.754;6.866;2023-06-05T11:43:02;7.32;;;4.03;;
53925;SDS011;39836;52.754;6.866;2023-06-05T11:45:29;6.53;;;3.50;;
53925;SDS011;39836;52.754;6.866;2023-06-05T11:48:07;6.05;;;3.30;;
53925;SDS011;39836;52.754;6.866;2023-06-05T11:50:33;8.60;;;3.75;;
53925;SDS011;39836;52.754;6.866;2023-06-05T11:53:07;7.75;;;3.70;;
53925;SDS011;39836;52.754;6.866;2023-06-05T11:55:33;7.15;;;3.30;;
53925;SDS011;39836;52.754;6.866;2023-06-05T11:58:29;6.55;;;3.17;;
53925;SDS011;39836;52.754;6.866;2023-06-05T12:03:38;8.07;;;4.28;;
53925;SDS011;39836;52.754;6.866;2023-06-05T12:06:04;5.45;;;3.30;;
53925;SDS011;39836;52.754;6.866;2023-06-05T12:08:31;11.15;;;3.80;;
53925;SDS011;39836;52.754;6.866;2023-06-05T12:11:00;12.07;;;4.00;;
53925;SDS011;39836;52.754;6.866;2023-06-05T12:13:46;7.32;;;3.10;;
53925;SDS011;39836;52.754;6.866;2023-06-05T12:16:16;8.25;;;3.45;;
53925;SDS011;39836;52.754;6.866;2023-06-05T12:18:44;5.97;;;3.25;;
53925;SDS011;39836;52.754;6.866;2023-06-05T12:21:23;4.72;;;3.05;;
53925;SDS011;39836;52.754;6.866;2023-06-05T12:23:49;5.25;;;2.90;;
53925;SDS011;39836;52.754;6.866;2023-06-05T12:26:16;6.72;;;3.33;;
53925;SDS011;39836;52.754;6.866;2023-06-05T12:28:42;5.28;;;2.80;;
53925;SDS011;39836;52.754;6.866;2023-06-05T12:31:55;5.22;;;2.47;;
53925;SDS011;39836;52.754;6.866;2023-06-05T12:34:04;5.10;;;3.10;;
53925;SDS011;39836;52.754;6.866;2023-06-05T12:36:40;5.65;;;2.90;;
53925;SDS011;39836;52.754;6.866;2023-06-05T12:41:35;6.72;;;3.10;;
53925;SDS011;39836;52.754;6.866;2023-06-05T12:44:02;7.45;;;3.45;;
53925;SDS011;39836;52.754;6.866;2023-06-05T12:46:33;6.65;;;3.20;;
53925;SDS011;39836;52.754;6.866;2023-06-05T12:48:59;7.50;;;2.55;;
53925;SDS011;39836;52.754;6.866;2023-06-05T12:51:26;7.55;;;3.10;;
53925;SDS011;39836;52.754;6.866;2023-06-05T12:53:55;7.97;;;3.45;;
53925;SDS011;39836;52.754;6.866;2023-06-05T12:56:22;9.20;;;3.30;;
53925;SDS011;39836;52.754;6.866;2023-06-05T12:58:56;8.50;;;2.78;;
53925;SDS011;39836;52.754;6.866;2023-06-05T13:01:23;10.05;;;2.95;;
53925;SDS011;39836;52.754;6.866;2023-06-05T13:03:50;4.68;;;2.55;;
53925;SDS011;39836;52.754;6.866;2023-06-05T13:06:16;6.50;;;2.70;;
53925;SDS011;39836;52.754;6.866;2023-06-05T13:08:42;7.60;;;2.72;;
53925;SDS011;39836;52.754;6.866;2023-06-05T13:11:08;7.55;;;3.03;;
53925;SDS011;39836;52.754;6.866;2023-06-05T13:13:35;4.97;;;2.88;;
53925;SDS011;39836;52.754;6.866;2023-06-05T13:16:01;4.18;;;2.50;;
53925;SDS011;39836;52.754;6.866;2023-06-05T13:18:30;7.47;;;2.95;;
53925;SDS011;39836;52.754;6.866;2023-06-05T13:20:55;7.03;;;3.10;;
53925;SDS011;39836;52.754;6.866;2023-06-05T13:23:21;5.88;;;3.13;;
53925;SDS011;39836;52.754;6.866;2023-06-05T13:25:47;5.07;;;2.65;;
53925;SDS011;39836;52.754;6.866;2023-06-05T13:28:12;4.90;;;2.47;;
53925;SDS011;39836;52.754;6.866;2023-06-05T13:30:38;5.28;;;2.28;;
53925;SDS011;39836;52.754;6.866;2023-06-05T13:33:04;7.40;;;2.50;;
53925;SDS011;39836;52.754;6.866;2023-06-05T13:35:30;6.35;;;2.40;;
53925;SDS011;39836;52.754;6.866;2023-06-05T13:37:56;6.00;;;2.90;;
53925;SDS011;39836;52.754;6.866;2023-06-05T13:40:22;6.55;;;2.72;;
53925;SDS011;39836;52.754;6.866;2023-06-05T13:42:48;4.28;;;2.53;;
53925;SDS011;39836;52.754;6.866;2023-06-05T13:45:16;5.85;;;3.10;;
53925;SDS011;39836;52.754;6.866;2023-06-05T13:47:42;4.57;;;2.50;;
53925;SDS011;39836;52.754;6.866;2023-06-05T13:50:08;6.35;;;2.75;;
53925;SDS011;39836;52.754;6.866;2023-06-05T13:52:34;6.93;;;2.88;;
53925;SDS011;39836;52.754;6.866;2023-06-05T13:54:59;6.75;;;2.65;;
53925;SDS011;39836;52.754;6.866;2023-06-05T13:57:27;4.35;;;2.40;;
53925;SDS011;39836;52.754;6.866;2023-06-05T13:59:52;6.00;;;2.53;;
53925;SDS011;39836;52.754;6.866;2023-06-05T14:02:20;6.47;;;1.92;;
53925;SDS011;39836;52.754;6.866;2023-06-05T14:04:46;4.53;;;2.38;;
53925;SDS011;39836;52.754;6.866;2023-06-05T14:07:12;9.40;;;2.53;;
53925;SDS011;39836;52.754;6.866;2023-06-05T14:09:37;5.28;;;2.83;;
53925;SDS011;39836;52.754;6.866;2023-06-05T14:12:03;5.60;;;2.42;;
53925;SDS011;39836;52.754;6.866;2023-06-05T14:14:29;5.32;;;2.83;;
53925;SDS011;39836;52.754;6.866;2023-06-05T14:16:55;5.75;;;2.47;;
53925;SDS011;39836;52.754;6.866;2023-06-05T14:19:21;5.85;;;2.20;;
53925;SDS011;39836;52.754;6.866;2023-06-05T14:21:47;4.15;;;2.22;;
53925;SDS011;39836;52.754;6.866;2023-06-05T14:24:14;4.72;;;2.30;;
53925;SDS011;39836;52.754;6.866;2023-06-05T14:26:40;9.77;;;2.60;;
53925;SDS011;39836;52.754;6.866;2023-06-05T14:29:06;5.63;;;2.15;;
53925;SDS011;39836;52.754;6.866;2023-06-05T14:31:32;4.90;;;2.30;;
53925;SDS011;39836;52.754;6.866;2023-06-05T14:33:58;6.15;;;2.67;;
53925;SDS011;39836;52.754;6.866;2023-06-05T14:36:23;3.53;;;2.55;;
53925;SDS011;39836;52.754;6.866;2023-06-05T14:38:50;5.10;;;2.97;;
53925;SDS011;39836;52.754;6.866;2023-06-05T14:41:16;9.02;;;2.70;;
53925;SDS011;39836;52.754;6.866;2023-06-05T14:43:42;5.07;;;2.38;;
53925;SDS011;39836;52.754;6.866;2023-06-05T14:46:07;7.97;;;2.50;;
53925;SDS011;39836;52.754;6.866;2023-06-05T14:48:33;9.52;;;3.35;;
53925;SDS011;39836;52.754;6.866;2023-06-05T14:50:59;7.18;;;2.92;;
53925;SDS011;39836;52.754;6.866;2023-06-05T14:53:25;7.85;;;3.60;;
53925;SDS011;39836;52.754;6.866;2023-06-05T14:55:52;5.32;;;2.55;;
53925;SDS011;39836;52.754;6.866;2023-06-05T14:58:18;6.90;;;2.92;;
53925;SDS011;39836;52.754;6.866;2023-06-05T15:00:45;5.88;;;3.00;;
53925;SDS011;39836;52.754;6.866;2023-06-05T15:03:11;6.88;;;3.60;;
53925;SDS011;39836;52.754;6.866;2023-06-05T15:05:36;8.05;;;3.22;;
53925;SDS011;39836;52.754;6.866;2023-06-05T15:08:02;5.95;;;2.90;;
53925;SDS011;39836;52.754;6.866;2023-06-05T15:10:28;7.22;;;3.33;;
53925;SDS011;39836;52.754;6.866;2023-06-05T15:12:53;7.07;;;3.53;;
53925;SDS011;39836;52.754;6.866;2023-06-05T15:15:22;8.82;;;3.45;;
53925;SDS011;39836;52.754;6.866;2023-06-05T15:17:49;6.00;;;3.13;;
53925;SDS011;39836;52.754;6.866;2023-06-05T15:20:18;5.15;;;2.70;;
53925;SDS011;39836;52.754;6.866;2023-06-05T15:22:45;5.85;;;2.90;;
53925;SDS011;39836;52.754;6.866;2023-06-05T15:25:11;6.25;;;2.92;;
53925;SDS011;39836;52.754;6.866;2023-06-05T15:27:37;6.55;;;3.70;;
53925;SDS011;39836;52.754;6.866;2023-06-05T15:30:03;7.40;;;3.38;;
53925;SDS011;39836;52.754;6.866;2023-06-05T15:32:30;7.57;;;3.80;;
53925;SDS011;39836;52.754;6.866;2023-06-05T15:34:56;8.02;;;3.83;;
53925;SDS011;39836;52.754;6.866;2023-06-05T15:37:24;6.72;;;3.50;;
53925;SDS011;39836;52.754;6.866;2023-06-05T15:39:51;5.57;;;3.33;;
53925;SDS011;39836;52.754;6.866;2023-06-05T15:42:17;9.07;;;3.80;;
53925;SDS011;39836;52.754;6.866;2023-06-05T15:44:51;9.10;;;3.73;;
53925;SDS011;39836;52.754;6.866;2023-06-05T15:47:18;8.13;;;3.70;;
53925;SDS011;39836;52.754;6.866;2023-06-05T15:49:44;5.60;;;3.55;;
53925;SDS011;39836;52.754;6.866;2023-06-05T15:52:11;7.68;;;4.07;;
53925;SDS011;39836;52.754;6.866;2023-06-05T15:54:36;6.78;;;3.88;;
53925;SDS011;39836;52.754;6.866;2023-06-05T15:57:03;8.65;;;4.05;;
53925;SDS011;39836;52.754;6.866;2023-06-05T15:59:31;8.25;;;4.40;;
53925;SDS011;39836;52.754;6.866;2023-06-05T16:01:56;7.85;;;4.38;;
53925;SDS011;39836;52.754;6.866;2023-06-05T16:04:22;7.22;;;3.97;;
53925;SDS011;39836;52.754;6.866;2023-06-05T16:06:48;7.85;;;4.20;;
53925;SDS011;39836;52.754;6.866;2023-06-05T16:09:13;6.15;;;4.03;;
53925;SDS011;39836;52.754;6.866;2023-06-05T16:11:39;8.45;;;4.05;;
53925;SDS011;39836;52.754;6.866;2023-06-05T16:14:05;13.10;;;4.70;;
53925;SDS011;39836;52.754;6.866;2023-06-05T16:16:31;7.32;;;3.88;;
53925;SDS011;39836;52.754;6.866;2023-06-05T16:18:57;9.10;;;4.55;;
53925;SDS011;39836;52.754;6.866;2023-06-05T16:21:25;9.23;;;4.35;;
53925;SDS011;39836;52.754;6.866;2023-06-05T16:23:51;9.35;;;4.07;;
53925;SDS011;39836;52.754;6.866;2023-06-05T16:26:17;10.43;;;4.40;;
53925;SDS011;39836;52.754;6.866;2023-06-05T16:28:43;7.68;;;4.60;;
53925;SDS011;39836;52.754;6.866;2023-06-05T16:31:09;8.27;;;4.18;;
53925;SDS011;39836;52.754;6.866;2023-06-05T16:33:39;10.45;;;4.57;;
53925;SDS011;39836;52.754;6.866;2023-06-05T16:36:05;8.18;;;4.80;;
53925;SDS011;39836;52.754;6.866;2023-06-05T16:38:32;10.48;;;4.95;;
53925;SDS011;39836;52.754;6.866;2023-06-05T16:40:58;10.63;;;4.85;;
53925;SDS011;39836;52.754;6.866;2023-06-05T16:43:23;10.98;;;4.97;;
53925;SDS011;39836;52.754;6.866;2023-06-05T16:45:49;7.13;;;4.65;;
53925;SDS011;39836;52.754;6.866;2023-06-05T16:48:15;10.27;;;5.18;;
53925;SDS011;39836;52.754;6.866;2023-06-05T16:50:41;9.32;;;5.50;;
53925;SDS011;39836;52.754;6.866;2023-06-05T16:53:10;14.23;;;5.80;;
53925;SDS011;39836;52.754;6.866;2023-06-05T16:55:36;9.98;;;5.10;;
53925;SDS011;39836;52.754;6.866;2023-06-05T16:58:01;10.48;;;5.72;;
53925;SDS011;39836;52.754;6.866;2023-06-05T17:00:27;11.98;;;6.30;;
53925;SDS011;39836;52.754;6.866;2023-06-05T17:02:53;11.48;;;6.10;;
53925;SDS011;39836;52.754;6.866;2023-06-05T17:05:18;14.75;;;6.30;;
53925;SDS011;39836;52.754;6.866;2023-06-05T17:07:44;10.90;;;5.57;;
53925;SDS011;39836;52.754;6.866;2023-06-05T17:10:10;11.18;;;6.70;;
53925;SDS011;39836;52.754;6.866;2023-06-05T17:12:35;8.38;;;5.97;;
53925;SDS011;39836;52.754;6.866;2023-06-05T17:15:01;9.55;;;6.03;;
53925;SDS011;39836;52.754;6.866;2023-06-05T17:17:27;12.05;;;6.32;;
53925;SDS011;39836;52.754;6.866;2023-06-05T17:19:53;12.52;;;6.10;;
53925;SDS011;39836;52.754;6.866;2023-06-05T17:22:19;10.02;;;6.10;;
53925;SDS011;39836;52.754;6.866;2023-06-05T17:24:45;11.32;;;5.25;;
53925;SDS011;39836;52.754;6.866;2023-06-05T17:27:11;14.40;;;6.75;;
53925;SDS011;39836;52.754;6.866;2023-06-05T17:29:37;10.10;;;5.88;;
53925;SDS011;39836;52.754;6.866;2023-06-05T17:32:02;11.63;;;6.13;;
53925;SDS011;39836;52.754;6.866;2023-06-05T17:34:28;12.63;;;5.53;;
53925;SDS011;39836;52.754;6.866;2023-06-05T17:36:54;8.45;;;5.53;;
53925;SDS011;39836;52.754;6.866;2023-06-05T17:39:20;13.45;;;5.60;;
53925;SDS011;39836;52.754;6.866;2023-06-05T17:41:45;13.02;;;5.55;;